createdAt,value
2022-12-15T00:00:11.201Z,29.60
2022-12-15T00:02:56.608Z,20.70
2022-12-15T00:05:41.877Z,19.70
2022-12-15T00:08:29.755Z,22.07
2022-12-15T00:11:15.529Z,19.63
2022-12-15T00:14:00.834Z,22.37
2022-12-15T00:16:46.115Z,22.07
2022-12-15T00:19:31.483Z,21.20
2022-12-15T00:22:16.944Z,18.80
2022-12-15T00:25:02.411Z,24.63
2022-12-15T00:27:47.714Z,26.23
2022-12-15T00:30:33.201Z,26.27
2022-12-15T00:33:18.482Z,22.60
2022-12-15T00:36:03.834Z,25.47
2022-12-15T00:38:45.733Z,26.00
2022-12-15T00:41:16.402Z,19.77
2022-12-15T00:43:43.709Z,20.73
2022-12-15T00:46:29.198Z,21.90
2022-12-15T00:48:56.500Z,20.33
2022-12-15T00:51:41.918Z,21.87
2022-12-15T00:54:27.281Z,22.03
2022-12-15T00:57:12.331Z,20.23
2022-12-15T00:59:57.573Z,20.00
2022-12-15T01:02:43.132Z,18.23
2022-12-15T01:05:28.823Z,19.00
2022-12-15T01:08:14.167Z,17.13
2022-12-15T01:10:59.409Z,20.60
2022-12-15T01:13:44.793Z,21.70
2022-12-15T01:16:35.171Z,19.00
2022-12-15T01:19:20.621Z,20.90
2022-12-15T01:21:47.284Z,22.37
2022-12-15T01:24:14.055Z,18.40
2022-12-15T01:26:40.703Z,17.33
2022-12-15T01:29:08.216Z,15.00
2022-12-15T01:31:35.182Z,22.17
2022-12-15T01:34:02.025Z,22.63
2022-12-15T01:36:28.876Z,18.80
2022-12-15T01:38:55.777Z,18.73
2022-12-15T01:41:22.906Z,17.67
2022-12-15T01:43:49.911Z,17.03
2022-12-15T01:46:20.457Z,16.27
2022-12-15T01:48:57.839Z,18.40
2022-12-15T01:51:46.942Z,18.77
2022-12-15T01:54:24.322Z,18.73
2022-12-15T01:56:55.138Z,17.87
2022-12-15T01:59:32.549Z,18.43
2022-12-15T02:01:59.480Z,19.10
2022-12-15T02:04:26.531Z,18.03
2022-12-15T02:06:53.328Z,19.10
2022-12-15T02:09:22.880Z,21.27
2022-12-15T02:12:08.163Z,19.17
2022-12-15T02:15:12.106Z,21.83
2022-12-15T02:17:59.420Z,19.60
2022-12-15T02:20:53.161Z,19.80
2022-12-15T02:23:47.324Z,14.57
2022-12-15T02:26:29.329Z,16.10
2022-12-15T02:29:02.090Z,23.53
2022-12-15T02:31:50.383Z,18.67
2022-12-15T02:34:35.291Z,21.43
2022-12-15T02:37:08.156Z,20.87
2022-12-15T02:39:34.819Z,17.20
2022-12-15T02:42:01.503Z,20.77
2022-12-15T02:44:35.417Z,19.07
2022-12-15T02:47:18.064Z,16.87
2022-12-15T02:50:03.514Z,19.83
2022-12-15T02:52:42.061Z,18.20
2022-12-15T02:55:30.733Z,17.53
2022-12-15T02:58:15.270Z,19.00
2022-12-15T03:00:47.496Z,23.20
2022-12-15T03:03:20.479Z,19.50
2022-12-15T03:05:53.290Z,27.47
2022-12-15T03:08:21.171Z,21.90
2022-12-15T03:10:51.398Z,23.83
2022-12-15T03:13:18.067Z,29.40
2022-12-15T03:15:44.712Z,23.97
2022-12-15T03:18:11.366Z,21.30
2022-12-15T03:20:37.989Z,22.07
2022-12-15T03:23:04.673Z,27.33
2022-12-15T03:25:31.369Z,25.40
2022-12-15T03:27:58.193Z,28.63
2022-12-15T03:30:24.854Z,25.00
2022-12-15T03:32:51.536Z,29.67
2022-12-15T03:35:18.285Z,27.90
2022-12-15T03:37:45.000Z,25.03
2022-12-15T03:40:14.034Z,27.90
2022-12-15T03:42:49.727Z,27.90
2022-12-15T03:45:22.086Z,24.77
2022-12-15T03:47:49.547Z,22.57
2022-12-15T03:50:19.433Z,22.33
2022-12-15T03:52:49.607Z,21.93
2022-12-15T03:55:16.264Z,26.10
2022-12-15T03:57:42.879Z,28.93
2022-12-15T04:00:12.002Z,27.60
2022-12-15T04:02:45.730Z,24.60
2022-12-15T04:05:19.377Z,25.13
2022-12-15T04:07:46.041Z,23.13
2022-12-15T04:10:13.057Z,29.10
2022-12-15T04:12:39.903Z,29.43
2022-12-15T04:15:08.570Z,24.97
2022-12-15T04:17:35.942Z,30.73
2022-12-15T04:20:10.534Z,28.67
2022-12-15T04:22:38.416Z,30.80
2022-12-15T04:25:26.484Z,27.57
2022-12-15T04:28:11.742Z,27.50
2022-12-15T04:30:58.551Z,32.10
2022-12-15T04:33:44.244Z,28.60
2022-12-15T04:36:32.079Z,31.17
2022-12-15T04:39:18.414Z,27.77
2022-12-15T04:42:03.888Z,29.97
2022-12-15T04:44:50.242Z,32.80
2022-12-15T04:47:35.578Z,21.10
2022-12-15T04:50:20.994Z,24.27
2022-12-15T04:53:06.474Z,27.93
2022-12-15T04:55:56.069Z,26.83
2022-12-15T04:58:41.400Z,27.30
2022-12-15T05:01:26.841Z,27.77
2022-12-15T05:04:12.424Z,23.10
2022-12-15T05:06:57.667Z,24.00
2022-12-15T05:09:43.157Z,21.97
2022-12-15T05:12:28.450Z,28.43
2022-12-15T05:15:13.773Z,26.20
2022-12-15T05:17:59.483Z,24.80
2022-12-15T05:20:44.805Z,27.10
2022-12-15T05:23:30.511Z,23.67
2022-12-15T05:26:18.031Z,22.67
2022-12-15T05:29:03.317Z,24.33
2022-12-15T05:32:08.412Z,25.03
2022-12-15T05:34:36.662Z,26.67
2022-12-15T05:37:05.682Z,19.37
2022-12-15T05:39:32.501Z,20.97
2022-12-15T05:41:59.216Z,25.10
2022-12-15T05:44:27.018Z,32.30
2022-12-15T05:46:53.932Z,32.20
2022-12-15T05:49:23.332Z,29.20
2022-12-15T05:51:50.319Z,32.60
2022-12-15T05:54:19.103Z,29.57
2022-12-15T05:56:47.125Z,31.00
2022-12-15T05:59:19.293Z,37.97
2022-12-15T06:01:46.430Z,30.87
2022-12-15T06:04:13.361Z,27.37
2022-12-15T06:06:41.192Z,33.27
2022-12-15T06:09:09.299Z,34.90
2022-12-15T06:11:37.507Z,27.33
2022-12-15T06:14:04.511Z,28.67
2022-12-15T06:16:31.311Z,29.33
2022-12-15T06:19:01.051Z,27.47
2022-12-15T06:21:35.285Z,31.73
2022-12-15T06:24:03.628Z,31.20
2022-12-15T06:26:35.454Z,26.67
2022-12-15T06:29:04.545Z,29.27
2022-12-15T06:31:32.606Z,26.27
2022-12-15T06:34:02.444Z,23.73
2022-12-15T06:36:31.071Z,29.13
2022-12-15T06:39:02.782Z,26.03
2022-12-15T06:41:32.294Z,25.43
2022-12-15T06:44:00.244Z,27.80
2022-12-15T06:46:28.942Z,28.70
2022-12-15T06:48:56.079Z,25.50
2022-12-15T06:51:23.171Z,32.17
2022-12-15T06:53:51.010Z,31.57
2022-12-15T06:56:30.643Z,25.43
2022-12-15T06:59:00.207Z,25.37
2022-12-15T07:01:27.605Z,28.13
2022-12-15T07:03:55.115Z,27.77
2022-12-15T07:06:22.103Z,25.60
2022-12-15T07:08:52.553Z,28.47
2022-12-15T07:11:21.163Z,25.00
2022-12-15T07:13:54.760Z,30.07
2022-12-15T07:16:23.171Z,30.57
2022-12-15T07:18:50.251Z,30.63
2022-12-15T07:21:17.407Z,33.60
2022-12-15T07:24:00.858Z,29.20
2022-12-15T07:26:28.326Z,32.73
2022-12-15T07:28:56.173Z,31.47
2022-12-15T07:31:23.590Z,33.60
2022-12-15T07:33:52.374Z,36.00
2022-12-15T07:36:19.611Z,42.00
2022-12-15T07:38:50.248Z,37.70
2022-12-15T07:41:18.340Z,35.77
2022-12-15T07:43:45.963Z,33.20
2022-12-15T07:46:12.570Z,30.07
2022-12-15T07:48:39.472Z,32.87
2022-12-15T07:51:12.335Z,34.53
2022-12-15T07:53:44.375Z,29.40
2022-12-15T07:56:11.068Z,37.37
2022-12-15T07:58:38.867Z,31.00
2022-12-15T08:01:08.141Z,29.50
2022-12-15T08:03:35.980Z,31.57
2022-12-15T08:06:11.577Z,32.10
2022-12-15T08:08:39.067Z,40.70
2022-12-15T08:11:11.151Z,31.37
2022-12-15T08:14:01.886Z,33.70
2022-12-15T08:16:25.690Z,25.70
2022-12-15T08:18:52.843Z,27.30
2022-12-15T08:21:19.732Z,33.77
2022-12-15T08:23:46.353Z,29.87
2022-12-15T08:26:15.840Z,34.70
2022-12-15T08:28:43.460Z,37.30
2022-12-15T08:31:16.631Z,32.00
2022-12-15T08:33:44.809Z,28.83
2022-12-15T08:36:14.078Z,30.33
2022-12-15T08:38:42.759Z,27.80
2022-12-15T08:41:12.069Z,29.90
2022-12-15T08:43:45.740Z,23.37
2022-12-15T08:46:15.104Z,26.60
2022-12-15T08:48:41.877Z,30.37
2022-12-15T08:51:09.827Z,27.90
2022-12-15T08:53:43.700Z,34.00
2022-12-15T08:56:13.886Z,26.47
2022-12-15T08:58:40.546Z,36.30
2022-12-15T09:01:11.031Z,32.13
2022-12-15T09:03:38.398Z,27.20
2022-12-15T09:06:13.762Z,32.73
2022-12-15T09:08:40.535Z,29.30
2022-12-15T09:11:07.564Z,33.80
2022-12-15T09:13:35.490Z,30.60
2022-12-15T09:16:13.374Z,35.87
2022-12-15T09:18:43.338Z,28.63
2022-12-15T09:21:11.406Z,26.40
2022-12-15T09:23:39.347Z,31.13
2022-12-15T09:26:14.424Z,34.10
2022-12-15T09:28:43.040Z,31.30
2022-12-15T09:31:15.370Z,32.93
2022-12-15T09:33:44.534Z,37.67
2022-12-15T09:36:13.283Z,28.10
2022-12-15T09:38:41.859Z,36.40
2022-12-15T09:41:17.485Z,35.00
2022-12-15T09:43:47.663Z,35.20
2022-12-15T09:46:27.068Z,37.37
2022-12-15T09:48:59.071Z,35.00
2022-12-15T09:51:50.613Z,25.90
2022-12-15T09:54:17.301Z,28.57
2022-12-15T09:56:50.284Z,36.53
2022-12-15T09:59:30.516Z,29.47
2022-12-15T10:02:18.964Z,30.50
2022-12-15T10:05:05.716Z,24.07
2022-12-15T10:07:40.217Z,35.80
2022-12-15T10:10:18.090Z,29.80
2022-12-15T10:12:55.275Z,34.07
2022-12-15T10:15:35.661Z,32.63
2022-12-15T10:18:17.531Z,28.37
2022-12-15T10:20:44.647Z,32.60
2022-12-15T10:23:18.329Z,38.10
2022-12-15T10:26:00.516Z,40.70
2022-12-15T10:31:35.004Z,31.47
2022-12-15T10:34:19.010Z,37.47
2022-12-15T10:36:51.331Z,38.80
2022-12-15T10:39:18.394Z,42.07
2022-12-15T10:41:45.042Z,38.10
2022-12-15T10:47:20.311Z,36.10
2022-12-15T10:49:48.463Z,34.20
2022-12-15T10:52:31.439Z,34.60
2022-12-15T10:54:58.204Z,43.13
2022-12-15T10:57:27.964Z,36.00
2022-12-15T11:00:02.161Z,36.90
2022-12-15T11:02:36.836Z,35.37
2022-12-15T11:05:17.884Z,34.20
2022-12-15T11:07:50.702Z,36.90
2022-12-15T11:10:25.892Z,35.90
2022-12-15T11:13:15.678Z,36.30
2022-12-15T11:15:56.560Z,41.67
2022-12-15T11:18:29.265Z,33.90
2022-12-15T11:21:14.090Z,46.60
2022-12-15T11:23:59.553Z,43.03
2022-12-15T11:26:45.287Z,35.00
2022-12-15T11:29:41.629Z,31.43
2022-12-15T11:32:11.647Z,32.70
2022-12-15T11:34:44.355Z,48.30
2022-12-15T11:37:37.260Z,35.50
2022-12-15T11:40:13.436Z,37.27
2022-12-15T11:42:52.184Z,36.13
2022-12-15T11:45:50.327Z,39.23
2022-12-15T11:48:21.447Z,39.73
2022-12-15T11:51:17.702Z,38.70
2022-12-15T11:54:12.279Z,34.57
2022-12-15T11:56:53.060Z,32.77
2022-12-15T11:59:38.219Z,33.07
2022-12-15T12:02:25.115Z,38.83
2022-12-15T12:05:03.993Z,39.00
2022-12-15T12:07:42.200Z,42.47
2022-12-15T12:10:33.307Z,38.30
2022-12-15T12:13:25.050Z,38.03
2022-12-15T12:16:04.608Z,38.20
2022-12-15T12:18:36.571Z,38.63
2022-12-15T12:21:15.015Z,46.07
2022-12-15T12:23:49.888Z,42.40
2022-12-15T12:26:31.236Z,41.83
2022-12-15T12:29:12.399Z,45.37
2022-12-15T12:31:51.577Z,40.93
2022-12-15T12:34:27.597Z,46.23
2022-12-15T12:36:58.843Z,52.13
2022-12-15T12:39:26.020Z,43.30
2022-12-15T12:42:00.507Z,42.43
2022-12-15T12:44:39.777Z,46.23
2022-12-15T12:47:12.219Z,46.40
2022-12-15T12:49:55.161Z,49.93
2022-12-15T12:52:27.932Z,41.23
2022-12-15T12:55:17.555Z,46.83
2022-12-15T12:57:45.311Z,44.57
2022-12-15T13:00:16.661Z,38.37
2022-12-15T13:02:53.852Z,37.30
2022-12-15T13:05:29.886Z,44.20
2022-12-15T13:08:16.802Z,37.93
2022-12-15T13:10:47.392Z,42.27
2022-12-15T13:13:29.666Z,34.87
2022-12-15T13:16:05.813Z,40.83
2022-12-15T13:18:58.123Z,43.77
2022-12-15T13:21:43.314Z,47.43
2022-12-15T13:24:31.852Z,48.67
2022-12-15T13:27:13.756Z,38.20
2022-12-15T13:29:58.916Z,36.17
2022-12-15T13:32:38.274Z,38.70
2022-12-15T13:35:14.104Z,36.87
2022-12-15T13:37:52.380Z,44.70
2022-12-15T13:40:35.229Z,52.00
2022-12-15T13:43:04.982Z,46.80
2022-12-15T13:45:37.371Z,45.77
2022-12-15T13:48:37.056Z,42.50
2022-12-15T13:51:24.181Z,57.13
2022-12-15T13:54:04.792Z,59.97
2022-12-15T13:56:47.740Z,54.03
2022-12-15T13:59:43.076Z,45.07
2022-12-15T14:02:31.132Z,44.37
2022-12-15T14:05:21.097Z,49.53
2022-12-15T14:10:51.256Z,43.80
2022-12-15T14:13:31.952Z,68.23
2022-12-15T14:16:03.074Z,44.50
2022-12-15T14:18:35.532Z,46.53
2022-12-15T14:21:07.401Z,47.97
2022-12-15T14:23:52.443Z,44.27
2022-12-15T14:26:53.729Z,43.00
2022-12-15T14:29:20.836Z,37.60
2022-12-15T14:31:54.602Z,43.40
2022-12-15T14:34:35.369Z,54.33
2022-12-15T14:37:07.846Z,41.80
2022-12-15T14:39:43.269Z,50.80
2022-12-15T14:42:18.075Z,52.77
2022-12-15T14:44:49.997Z,36.47
2022-12-15T14:47:26.988Z,43.40
2022-12-15T14:49:55.538Z,46.60
2022-12-15T14:52:32.813Z,44.17
2022-12-15T14:55:21.172Z,38.70
2022-12-15T14:57:48.557Z,44.50
2022-12-15T15:00:30.739Z,41.03
2022-12-15T15:03:10.971Z,35.37
2022-12-15T15:03:19.775Z,41.57
2022-12-15T15:05:51.598Z,45.87
2022-12-15T15:08:47.720Z,37.97
2022-12-15T15:11:29.770Z,40.97
2022-12-15T15:14:00.459Z,44.13
2022-12-15T15:16:27.537Z,44.07
2022-12-15T15:18:56.369Z,41.80
2022-12-15T15:21:28.785Z,39.90
2022-12-15T15:24:22.647Z,43.90
2022-12-15T15:26:49.505Z,40.20
2022-12-15T15:29:40.911Z,35.97
2022-12-15T15:32:21.445Z,41.73
2022-12-15T15:34:49.274Z,47.00
2022-12-15T15:37:21.633Z,40.20
2022-12-15T15:39:50.529Z,41.67
2022-12-15T15:42:17.615Z,41.63
2022-12-15T17:47:55.876Z,59.43
2022-12-15T17:50:25.709Z,56.00
2022-12-15T17:52:52.515Z,52.60
2022-12-15T17:55:33.303Z,60.43
2022-12-15T17:58:38.605Z,54.60
2022-12-15T18:01:11.737Z,58.10
2022-12-15T18:03:42.103Z,57.17
2022-12-15T18:06:19.933Z,46.20
2022-12-15T18:08:51.076Z,56.40
2022-12-15T18:11:19.071Z,48.53
2022-12-15T18:13:45.912Z,54.30
2022-12-15T18:16:12.836Z,60.07
2022-12-15T18:18:39.705Z,47.97
2022-12-15T18:21:15.504Z,48.67
2022-12-15T18:23:47.645Z,47.40
2022-12-15T18:26:17.028Z,59.23
2022-12-15T18:28:44.129Z,72.77
2022-12-15T18:31:22.483Z,56.17
2022-12-15T18:33:50.083Z,47.77
2022-12-15T18:36:17.789Z,60.90
2022-12-15T18:38:44.754Z,54.23
2022-12-15T18:41:17.574Z,46.03
2022-12-15T18:43:49.142Z,63.77
2022-12-15T18:46:17.332Z,51.80
2022-12-15T18:48:44.630Z,51.63
2022-12-15T18:51:25.133Z,48.57
2022-12-15T18:53:51.948Z,45.50
2022-12-15T18:56:21.661Z,52.77
2022-12-15T18:58:48.434Z,62.10
2022-12-15T19:01:16.306Z,56.60
2022-12-15T19:03:43.515Z,61.50
2022-12-15T19:06:35.038Z,62.50
2022-12-15T19:09:03.772Z,50.70
2022-12-15T19:11:34.078Z,48.00
2022-12-15T19:14:03.035Z,53.57
2022-12-15T19:16:53.106Z,55.43
2022-12-15T19:19:38.677Z,49.97
2022-12-15T19:22:30.003Z,43.07
2022-12-15T19:24:57.105Z,49.60
2022-12-15T19:27:26.646Z,58.63
2022-12-15T19:29:54.652Z,52.07
2022-12-15T19:32:22.966Z,45.33
2022-12-15T19:34:50.310Z,43.80
2022-12-15T19:37:25.040Z,43.20
2022-12-15T19:39:53.211Z,62.30
2022-12-15T19:42:24.075Z,49.97
2022-12-15T19:44:50.833Z,48.87
2022-12-15T19:47:17.680Z,74.57
2022-12-15T19:49:44.932Z,62.17
2022-12-15T19:52:18.327Z,63.67
2022-12-15T19:54:48.241Z,56.30
2022-12-15T19:57:18.778Z,58.17
2022-12-15T19:59:46.747Z,47.77
2022-12-15T20:02:21.171Z,47.50
2022-12-15T20:04:49.036Z,55.97
2022-12-15T20:07:18.395Z,47.53
2022-12-15T20:09:45.351Z,55.90
2022-12-15T20:12:18.021Z,62.03
2022-12-15T20:14:45.717Z,69.60
2022-12-15T20:17:12.423Z,54.47
2022-12-15T20:19:39.235Z,75.30
2022-12-15T20:22:06.849Z,61.00
2022-12-15T20:24:33.835Z,64.77
2022-12-15T20:27:00.705Z,61.03
2022-12-15T20:29:32.375Z,51.33
2022-12-15T20:31:59.711Z,53.17
2022-12-15T20:34:26.897Z,47.63
2022-12-15T20:36:55.151Z,56.93
2022-12-15T20:39:26.883Z,55.20
2022-12-15T20:41:54.503Z,57.13
2022-12-15T20:44:23.138Z,49.13
2022-12-15T20:46:50.365Z,53.33
2022-12-15T20:49:20.005Z,61.83
2022-12-15T20:51:48.812Z,52.27
2022-12-15T20:54:21.249Z,46.70
2022-12-15T20:56:49.183Z,50.67
2022-12-15T20:59:17.190Z,45.70
2022-12-15T21:01:44.646Z,44.13
2022-12-15T21:04:27.223Z,48.53
2022-12-15T21:06:55.530Z,45.77
2022-12-15T21:09:23.345Z,42.90
2022-12-15T21:11:51.948Z,35.53
2022-12-15T21:14:21.420Z,38.17
2022-12-15T21:16:48.698Z,40.90
2022-12-15T21:19:20.851Z,34.23
2022-12-15T21:21:51.867Z,34.73
2022-12-15T21:24:23.023Z,26.77
2022-12-15T21:26:50.887Z,28.93
2022-12-15T21:29:23.060Z,32.87
2022-12-15T21:31:50.523Z,37.40
2022-12-15T21:34:17.494Z,27.90
2022-12-15T21:36:47.598Z,33.87
2022-12-15T21:39:33.092Z,35.90
2022-12-15T21:42:03.268Z,24.87
2022-12-15T21:44:30.091Z,25.00
2022-12-15T21:46:57.035Z,27.87
2022-12-15T21:49:24.468Z,31.40
2022-12-15T21:51:54.958Z,27.33
2022-12-15T21:54:33.554Z,30.47
2022-12-15T21:57:00.765Z,23.10
2022-12-15T21:59:30.197Z,24.87
2022-12-15T22:01:57.609Z,27.40
2022-12-15T22:04:30.361Z,25.97
2022-12-15T22:06:57.123Z,28.70
2022-12-15T22:09:24.269Z,29.10
2022-12-15T22:11:56.599Z,25.57
2022-12-15T22:14:33.261Z,26.87
2022-12-15T22:17:16.039Z,30.63
2022-12-15T22:19:43.190Z,32.17
2022-12-15T22:22:10.033Z,35.10
2022-12-15T22:24:36.763Z,25.20
2022-12-15T22:27:03.821Z,26.87
2022-12-15T22:29:31.715Z,27.77
2022-12-15T22:31:58.416Z,27.80
2022-12-15T22:34:27.180Z,27.60
2022-12-15T22:39:40.562Z,23.70
2022-12-15T22:42:07.937Z,27.63
2022-12-15T22:44:37.313Z,29.33
2022-12-15T22:47:04.861Z,24.67
2022-12-15T22:49:37.669Z,28.50
2022-12-15T22:52:16.513Z,25.27
2022-12-15T22:54:46.021Z,28.40
2022-12-15T22:57:24.108Z,22.87
2022-12-15T23:00:02.903Z,26.90
2022-12-15T23:02:35.528Z,27.80
2022-12-15T23:05:02.768Z,30.93
2022-12-15T23:07:29.650Z,30.20
2022-12-15T23:10:14.810Z,32.23
2022-12-15T23:12:41.720Z,30.33
2022-12-15T23:15:27.459Z,28.67
2022-12-15T23:17:54.181Z,33.77
2022-12-15T23:20:21.835Z,37.53
2022-12-15T23:22:48.480Z,27.53
2022-12-15T23:25:16.284Z,35.17
2022-12-15T23:27:42.999Z,25.47
2022-12-15T23:30:10.491Z,31.03
2022-12-15T23:32:38.791Z,29.90
2022-12-15T23:35:06.555Z,33.53
2022-12-15T23:37:35.217Z,32.20
2022-12-15T23:40:01.965Z,27.93
2022-12-15T23:42:28.728Z,27.83
2022-12-15T23:44:55.602Z,28.47
2022-12-15T23:47:22.415Z,27.13
2022-12-15T23:49:49.832Z,26.07
2022-12-15T23:52:18.431Z,29.00
2022-12-15T23:54:45.189Z,22.50
2022-12-15T23:57:12.076Z,27.63
2022-12-15T23:59:38.846Z,29.03
